Catskill, NY

11:41 AM EDT on May 05, 2015 (GMT -0400)
Catskill, NY.Route 23A | | Change Station
CLOSE
Current Station
Personal Weather Station
Location: Catskill, NY
Elevation: 312 ft
Nearby Weather Stations

Elev 312 ft 42.20 °N, 73.95 °W | Updated 7 minutes ago

Partly Cloudy
Partly Cloudy
78.4 °F
Feels Like 79 °F
N
4.2
Wind Variable Wind from ESE

Today
High -- | Low -- °F
--% Chance of Precip.
Yesterday
High -- | Low -- °F
Precip. -- in
5:46 AM 7:59 PM
Full, 98% visible
Pressure 30.16 in
Visibility 10.0 miles
Clouds Scattered Clouds 4100 ft
Heat Index 79 °F
Dew Point 53 °F
Humidity 42%
Rainfall 0.00 in
Snow Depth Not available.
UV 7 out of 12
Pollen 7.00 out of 12
Air Quality Not available.
Flu Activity Widespread
METAR KPSF 051454Z AUTO 33010G14KT 10SM SCT041 21/09 A3023 RMK AO2 SLP212 T02110094 53007

More Conditions Fewer Conditions

Pressure 30.16 in
Visibility 10.0 miles
Clouds Scattered Clouds 4100 ft
Heat Index 79 °F
Dew Point 53 °F
Humidity 42%
Rainfall 0.00 in
Snow Depth Not available.
UV 7 out of 12
Pollen 7.00 out of 12
Air Quality Not available.
Flu Activity Widespread
METAR KPSF 051454Z AUTO 33010G14KT 10SM SCT041 21/09 A3023 RMK AO2 SLP212 T02110094 53007

More Conditions Fewer Conditions

10-Day Weather Forecast

Almanac

Astronomy

May. 05, 2015 Rise Set
Actual Time
Civil Twilight
Nautical Twilight
Astronomical Twilight
Moon
Length of Visible Light
Length of Day
Tomorrow will be .
, % of the Moon is Illuminated

Today's Extremes

State Highs State Lows

Community

WunderPhotos

Upload Photos

1,818,922 photos uploaded!

WunderBlogs® & News

Nearby

Air Quality

  Air Quality AQ Index Pollutant
Not available.

Snow Depth

Station Depth Elevation

Earthquake Activity

City Distance Mag. Time & Date
Minimum magnitude displayed is 2.5.

Coastal Water Temperatures

Place Temperature

Stations

Nearby Weather Stations

Station Location Temp. Windchill Dew Point Humidity Wind Precip. Elev Updated Type